createdAt,value
2023-04-29T16:58:35.815Z,98724.91
2023-04-29T17:03:57.741Z,98721.78
2023-04-29T17:09:19.533Z,98726.91
2023-04-29T17:14:41.246Z,98724.19
2023-04-29T17:20:03.813Z,98727.03
2023-04-29T17:25:25.577Z,98730.91
2023-04-29T17:30:47.256Z,98719.56
2023-04-29T17:36:08.916Z,98729.66
2023-04-29T17:41:30.667Z,98724.13
2023-04-29T17:46:52.362Z,98732.31
2023-04-29T17:52:15.132Z,98732.19
2023-04-29T17:57:38.082Z,98740.94
2023-04-29T18:02:59.992Z,98735.22
2023-04-29T18:08:21.763Z,98734.38
2023-04-29T18:13:43.551Z,98742.28
2023-04-29T18:19:05.325Z,98743.63
2023-04-29T18:24:29.073Z,98747.22
2023-04-29T18:29:51.242Z,98742.94
2023-04-29T18:35:13.330Z,98739.88
2023-04-29T18:40:46.464Z,98744.25
2023-04-29T18:46:08.306Z,98751.22
2023-04-29T18:51:31.154Z,98757.53
2023-04-29T18:56:52.854Z,98761.50
2023-04-29T19:02:14.870Z,98764.41
2023-04-29T19:07:36.767Z,98773.94
2023-04-29T19:12:58.550Z,98786.88
2023-04-29T19:18:22.594Z,98784.75
2023-04-29T19:23:44.524Z,98785.97
2023-04-29T19:29:07.199Z,98795.66
2023-04-29T19:34:29.198Z,98792.88
2023-04-29T19:39:51.134Z,98806.53
2023-04-29T19:45:13.092Z,98807.81
2023-04-29T19:50:34.783Z,98809.91
2023-04-29T19:55:56.462Z,98795.22
2023-04-29T20:01:18.265Z,98800.00
2023-04-29T20:06:40.726Z,98801.06
2023-04-29T20:12:03.090Z,98811.75
2023-04-29T20:17:25.612Z,98812.69
2023-04-29T20:22:48.008Z,98814.28
2023-04-29T20:28:09.805Z,98816.34
2023-04-29T20:33:31.629Z,98822.47
2023-04-29T20:38:53.451Z,98823.22
2023-04-29T20:44:15.145Z,98822.59
2023-04-29T20:49:37.140Z,98833.38
2023-04-29T20:54:59.043Z,98837.50
2023-04-29T21:00:20.886Z,98834.75
2023-04-29T21:05:42.623Z,98828.59
2023-04-29T21:11:07.559Z,98837.00
2023-04-29T21:16:29.376Z,98828.75
2023-04-29T21:21:51.077Z,98835.81
2023-04-29T21:27:12.838Z,98831.00
2023-04-29T21:32:35.933Z,98848.34
2023-04-29T21:37:57.770Z,98836.06
2023-04-29T21:43:19.523Z,98834.09
2023-04-29T21:48:41.409Z,98832.59
2023-04-29T21:54:08.370Z,98831.84
2023-04-29T21:59:34.195Z,98837.94
2023-04-29T22:04:55.905Z,98841.50
2023-04-29T22:10:17.585Z,98846.56
2023-04-29T22:15:39.541Z,98850.13
2023-04-29T22:21:01.218Z,98846.56
2023-04-29T22:26:25.403Z,98843.19
2023-04-29T22:31:47.240Z,98844.06
2023-04-29T22:37:08.976Z,98852.00
2023-04-29T22:42:30.659Z,98858.84
2023-04-29T22:47:52.374Z,98855.38
2023-04-29T22:53:14.085Z,98855.59
2023-04-29T22:58:35.964Z,98859.13
2023-04-29T23:03:57.816Z,98856.59
2023-04-29T23:09:19.582Z,98849.69
2023-04-29T23:14:41.270Z,98861.13
2023-04-29T23:20:03.039Z,98842.00
2023-04-29T23:25:24.718Z,98847.53
2023-04-29T23:30:47.825Z,98850.16
2023-04-29T23:36:09.499Z,98856.44
2023-04-29T23:41:31.793Z,98861.78
2023-04-29T23:46:53.598Z,98867.03
2023-04-29T23:52:15.301Z,98872.34
2023-04-29T23:57:37.003Z,98875.09
